Time;durP1;ratioP1;P1;durP2;ratioP2;P2;SDS_P1;SDS_P2;PMS_P1;PMS_P2;Temp;Humidity;BMP_temperature;BMP_pressure;BME280_temperature;BME280_humidity;BME280_pressure;Samples;Min_cycle;Max_cycle;Signal;HPM_P1;HPM_P2
2024/02/15 00:00:12;;;;;;;66.35;42.95;;;;;;;;;;4935876;28;20103;-67
2024/02/15 00:02:38;;;;;;;63.13;43.95;;;;;;;;;;4929725;29;20050;-67
2024/02/15 00:05:05;;;;;;;60.28;43.38;;;;;;;;;;4945390;28;20039;-67
2024/02/15 00:07:31;;;;;;;61.85;41.45;;;;;;;;;;4934594;28;20019;-67
2024/02/15 00:09:58;;;;;;;62.63;41.38;;;;;;;;;;4940733;29;20066;-67
2024/02/15 00:12:24;;;;;;;61.38;41.17;;;;;;;;;;4941222;29;20031;-67
2024/02/15 00:14:50;;;;;;;56.47;40.53;;;;;;;;;;4933685;29;20055;-67
2024/02/15 00:17:18;;;;;;;60.35;40.70;;;;;;;;;;4945115;29;20522;-66
2024/02/15 00:19:44;;;;;;;57.25;38.50;;;;;;;;;;4935776;29;20023;-67
2024/02/15 00:22:10;;;;;;;63.58;39.90;;;;;;;;;;4938580;28;20422;-66
2024/02/15 00:24:37;;;;;;;61.70;40.17;;;;;;;;;;4942626;29;20093;-67
2024/02/15 00:27:04;;;;;;;64.53;40.38;;;;;;;;;;4933457;29;20074;-66
2024/02/15 00:29:31;;;;;;;59.22;39.80;;;;;;;;;;4931950;28;20459;-67
2024/02/15 00:31:57;;;;;;;58.92;39.47;;;;;;;;;;4927819;28;20028;-67
2024/02/15 00:34:26;;;;;;;56.85;38.40;;;;;;;;;;4929925;28;20043;-67
2024/02/15 00:36:52;;;;;;;64.72;38.97;;;;;;;;;;4935652;28;20024;-67
2024/02/15 00:39:18;;;;;;;56.72;36.75;;;;;;;;;;4934095;28;20071;-66
2024/02/15 00:41:45;;;;;;;56.10;36.63;;;;;;;;;;4933639;28;20028;-66
2024/02/15 00:44:11;;;;;;;57.38;38.00;;;;;;;;;;4933518;29;20028;-66
2024/02/15 00:46:37;;;;;;;53.65;36.47;;;;;;;;;;4933659;28;20077;-66
2024/02/15 00:49:06;;;;;;;55.10;36.30;;;;;;;;;;4934429;28;20102;-66
2024/02/15 00:51:33;;;;;;;63.58;36.83;;;;;;;;;;4925914;29;20520;-66
2024/02/15 00:54:01;;;;;;;54.22;35.83;;;;;;;;;;4933871;28;20043;-66
2024/02/15 00:56:27;;;;;;;53.90;36.65;;;;;;;;;;4933621;28;20020;-66
2024/02/15 00:58:53;;;;;;;51.28;36.03;;;;;;;;;;4933719;28;20024;-66
2024/02/15 01:01:19;;;;;;;56.03;35.85;;;;;;;;;;4934518;28;20027;-66
2024/02/15 01:03:45;;;;;;;52.00;35.28;;;;;;;;;;4933376;28;20027;-65
2024/02/15 01:06:11;;;;;;;49.72;35.25;;;;;;;;;;4933418;28;20027;-66
2024/02/15 01:08:38;;;;;;;49.60;34.05;;;;;;;;;;4933348;29;20063;-66
2024/02/15 01:11:04;;;;;;;49.40;34.05;;;;;;;;;;4934458;28;20051;-67
2024/02/15 01:13:30;;;;;;;51.17;34.10;;;;;;;;;;4925030;29;20400;-66
2024/02/15 01:15:56;;;;;;;47.88;31.55;;;;;;;;;;4932620;28;20059;-66
2024/02/15 01:18:22;;;;;;;49.50;34.85;;;;;;;;;;4932369;28;20073;-66
2024/02/15 01:20:48;;;;;;;46.55;32.20;;;;;;;;;;4932987;28;20039;-66
2024/02/15 01:23:14;;;;;;;48.05;32.30;;;;;;;;;;4933191;28;20110;-66
2024/02/15 01:25:40;;;;;;;49.08;32.45;;;;;;;;;;4933131;28;20055;-66
2024/02/15 01:28:06;;;;;;;46.88;32.67;;;;;;;;;;4933153;29;20117;-65
2024/02/15 01:30:32;;;;;;;44.90;31.15;;;;;;;;;;4932806;28;20090;-65
2024/02/15 01:32:59;;;;;;;47.25;31.90;;;;;;;;;;4933492;28;20097;-65
2024/02/15 01:35:25;;;;;;;43.00;29.98;;;;;;;;;;4933527;29;20047;-64
2024/02/15 01:37:52;;;;;;;42.38;30.00;;;;;;;;;;4933016;28;20040;-65
2024/02/15 01:40:18;;;;;;;44.47;31.85;;;;;;;;;;4932908;28;20024;-64
2024/02/15 01:42:45;;;;;;;42.05;30.00;;;;;;;;;;4933038;28;20023;-65
2024/02/15 01:45:11;;;;;;;43.65;30.42;;;;;;;;;;4933927;28;20059;-67
2024/02/15 01:47:40;;;;;;;45.22;29.40;;;;;;;;;;4933075;28;20144;-67
2024/02/15 01:50:07;;;;;;;43.53;28.92;;;;;;;;;;4932419;29;20038;-66
2024/02/15 01:52:33;;;;;;;38.85;28.13;;;;;;;;;;4932606;28;20015;-66
2024/02/15 01:55:00;;;;;;;41.08;29.02;;;;;;;;;;4933421;28;20488;-65
2024/02/15 01:57:26;;;;;;;42.03;29.85;;;;;;;;;;4933415;28;20403;-67
2024/02/15 01:59:52;;;;;;;41.00;27.48;;;;;;;;;;4932866;28;20499;-67
2024/02/15 02:02:21;;;;;;;42.10;28.42;;;;;;;;;;4933016;28;20421;-67
2024/02/15 02:04:47;;;;;;;42.88;26.92;;;;;;;;;;4934615;28;20023;-66
2024/02/15 02:07:14;;;;;;;42.03;27.40;;;;;;;;;;4932638;28;20103;-67
2024/02/15 02:09:40;;;;;;;43.65;27.52;;;;;;;;;;4933267;29;20032;-66
2024/02/15 02:12:07;;;;;;;40.13;27.80;;;;;;;;;;4933702;28;20028;-69
2024/02/15 02:14:33;;;;;;;37.33;26.67;;;;;;;;;;4951433;28;20052;-66
2024/02/15 02:17:13;;;;;;;42.72;27.05;;;;;;;;;;4934678;28;20039;-67
2024/02/15 02:19:39;;;;;;;40.70;27.42;;;;;;;;;;4926704;28;20042;-66
2024/02/15 02:22:05;;;;;;;37.97;26.48;;;;;;;;;;4932617;28;20499;-67
2024/02/15 02:24:36;;;;;;;38.92;26.73;;;;;;;;;;4931078;28;20111;-66
2024/02/15 02:27:03;;;;;;;38.78;27.23;;;;;;;;;;4933588;29;20127;-67
2024/02/15 02:29:30;;;;;;;40.05;24.63;;;;;;;;;;4932514;29;20105;-67
2024/02/15 02:31:57;;;;;;;35.28;25.48;;;;;;;;;;4932233;29;20024;-67
2024/02/15 02:34:24;;;;;;;37.90;24.52;;;;;;;;;;4932294;28;20035;-67
2024/02/15 02:36:51;;;;;;;39.25;25.85;;;;;;;;;;4932487;28;20127;-67
2024/02/15 02:39:17;;;;;;;34.78;22.60;;;;;;;;;;4932784;28;20517;-65
2024/02/15 02:41:43;;;;;;;34.97;24.38;;;;;;;;;;4930694;28;20028;-65
2024/02/15 02:44:09;;;;;;;35.28;24.08;;;;;;;;;;4932615;29;20031;-65
2024/02/15 02:46:35;;;;;;;33.70;24.13;;;;;;;;;;4932069;28;20020;-65
2024/02/15 02:49:01;;;;;;;34.58;24.17;;;;;;;;;;4931448;29;20040;-66
2024/02/15 02:51:27;;;;;;;35.25;23.63;;;;;;;;;;4932223;28;20145;-65
2024/02/15 02:53:53;;;;;;;32.63;22.92;;;;;;;;;;4932153;29;20086;-65
2024/02/15 02:56:19;;;;;;;34.40;22.52;;;;;;;;;;4932029;28;20028;-66
2024/02/15 02:58:45;;;;;;;35.10;23.75;;;;;;;;;;4931866;28;20031;-67
2024/02/15 03:01:11;;;;;;;32.70;22.65;;;;;;;;;;4932395;29;20541;-67
2024/02/15 03:03:39;;;;;;;33.97;22.63;;;;;;;;;;4931733;29;20375;-67
2024/02/15 03:06:06;;;;;;;34.13;21.92;;;;;;;;;;4931823;28;20035;-67
2024/02/15 03:08:32;;;;;;;33.53;23.27;;;;;;;;;;4931707;28;20020;-69
2024/02/15 03:10:58;;;;;;;29.75;21.45;;;;;;;;;;4931864;28;20032;-67
2024/02/15 03:13:24;;;;;;;31.35;21.33;;;;;;;;;;4931408;28;20026;-67
2024/02/15 03:15:50;;;;;;;30.83;20.70;;;;;;;;;;4931762;28;20020;-66
2024/02/15 03:18:17;;;;;;;30.95;20.73;;;;;;;;;;4931611;29;20505;-65
2024/02/15 03:20:43;;;;;;;31.17;20.27;;;;;;;;;;4931585;28;20024;-65
2024/02/15 03:23:10;;;;;;;28.58;19.30;;;;;;;;;;4932731;28;20510;-65
2024/02/15 03:25:37;;;;;;;28.85;20.33;;;;;;;;;;4931479;28;20035;-65
2024/02/15 03:28:03;;;;;;;28.23;19.42;;;;;;;;;;4931572;28;20024;-66
2024/02/15 03:30:31;;;;;;;28.33;19.25;;;;;;;;;;4931322;28;20472;-65
2024/02/15 03:32:58;;;;;;;26.70;18.80;;;;;;;;;;4931863;28;20043;-67
2024/02/15 03:35:28;;;;;;;27.75;18.70;;;;;;;;;;4932136;28;20080;-66
2024/02/15 03:37:54;;;;;;;27.73;18.42;;;;;;;;;;4931373;28;20356;-66
2024/02/15 03:40:21;;;;;;;28.23;18.75;;;;;;;;;;4929806;28;20035;-66
2024/02/15 03:42:47;;;;;;;25.98;17.83;;;;;;;;;;4931462;28;20173;-66
2024/02/15 03:45:13;;;;;;;29.00;18.85;;;;;;;;;;4932481;28;20032;-66
2024/02/15 03:47:39;;;;;;;26.00;17.65;;;;;;;;;;4931265;28;20020;-65
2024/02/15 03:50:06;;;;;;;25.67;17.88;;;;;;;;;;4931192;28;20039;-65
2024/02/15 03:52:32;;;;;;;25.88;17.88;;;;;;;;;;4931069;29;20031;-65
2024/02/15 03:54:59;;;;;;;27.25;17.38;;;;;;;;;;4931742;28;20035;-65
2024/02/15 03:57:25;;;;;;;25.88;17.70;;;;;;;;;;4932025;29;20084;-64
2024/02/15 03:59:52;;;;;;;25.48;17.05;;;;;;;;;;4931272;28;20024;-66
2024/02/15 04:02:19;;;;;;;31.73;17.52;;;;;;;;;;4931120;29;20059;-68
2024/02/15 04:04:47;;;;;;;24.73;16.55;;;;;;;;;;4929803;28;20194;-68
2024/02/15 04:07:16;;;;;;;23.52;16.23;;;;;;;;;;4932435;28;20020;-68
2024/02/15 04:09:48;;;;;;;25.48;16.27;;;;;;;;;;4931057;28;20027;-67
2024/02/15 04:12:14;;;;;;;23.33;16.15;;;;;;;;;;4930852;29;20034;-68
2024/02/15 04:14:41;;;;;;;24.35;16.42;;;;;;;;;;4934240;28;20023;-67
2024/02/15 04:17:07;;;;;;;22.77;14.98;;;;;;;;;;4934396;28;20086;-67
2024/02/15 04:19:34;;;;;;;23.58;15.23;;;;;;;;;;4934303;28;20032;-67
2024/02/15 04:22:00;;;;;;;21.33;15.10;;;;;;;;;;4934433;28;20028;-68
2024/02/15 04:24:26;;;;;;;24.08;15.63;;;;;;;;;;4933976;28;20062;-67
2024/02/15 04:26:53;;;;;;;21.20;15.18;;;;;;;;;;4934491;28;20024;-68
2024/02/15 04:29:20;;;;;;;22.95;15.38;;;;;;;;;;4935441;29;20024;-68
2024/02/15 04:31:49;;;;;;;25.35;14.95;;;;;;;;;;4935227;28;20081;-66
2024/02/15 04:34:18;;;;;;;22.13;14.43;;;;;;;;;;4935644;28;20035;-67
2024/02/15 04:36:55;;;;;;;21.98;13.65;;;;;;;;;;4935608;28;20024;-67
2024/02/15 04:39:26;;;;;;;17.55;13.05;;;;;;;;;;4933849;28;20486;-68
2024/02/15 04:41:52;;;;;;;15.60;12.45;;;;;;;;;;4935614;28;20431;-67
2024/02/15 04:44:20;;;;;;;21.23;12.45;;;;;;;;;;4935079;28;20391;-66
2024/02/15 04:46:46;;;;;;;18.58;12.73;;;;;;;;;;4935224;28;20016;-66
2024/02/15 04:49:13;;;;;;;19.27;12.15;;;;;;;;;;4936584;29;20056;-67
2024/02/15 04:51:41;;;;;;;21.40;13.07;;;;;;;;;;4935173;28;20020;-67
2024/02/15 04:54:07;;;;;;;18.45;12.52;;;;;;;;;;4935120;28;20024;-66
2024/02/15 04:56:33;;;;;;;30.33;13.77;;;;;;;;;;4935148;28;20011;-66
2024/02/15 04:58:59;;;;;;;19.95;12.10;;;;;;;;;;4935464;28;20518;-65
2024/02/15 05:01:25;;;;;;;22.17;12.07;;;;;;;;;;4935468;29;20023;-66
2024/02/15 05:03:51;;;;;;;25.10;11.45;;;;;;;;;;4935213;28;20035;-68
2024/02/15 05:06:17;;;;;;;20.67;11.95;;;;;;;;;;4935075;28;20040;-67
2024/02/15 05:08:45;;;;;;;16.30;10.68;;;;;;;;;;4933806;28;20034;-67
2024/02/15 05:11:17;;;;;;;24.17;11.93;;;;;;;;;;4936236;28;20070;-67
2024/02/15 05:13:44;;;;;;;15.45;10.82;;;;;;;;;;4934872;28;20073;-68
2024/02/15 05:16:10;;;;;;;17.00;10.52;;;;;;;;;;4934807;29;20070;-68
2024/02/15 05:18:39;;;;;;;15.93;11.02;;;;;;;;;;4934967;28;20020;-67
2024/02/15 05:21:09;;;;;;;22.25;11.60;;;;;;;;;;4934492;29;20083;-65
2024/02/15 05:23:35;;;;;;;18.65;10.48;;;;;;;;;;4927397;28;20023;-67
2024/02/15 05:26:01;;;;;;;22.80;11.25;;;;;;;;;;4933677;28;20036;-65
2024/02/15 05:28:27;;;;;;;27.75;10.15;;;;;;;;;;4936029;28;20031;-65
2024/02/15 05:31:11;;;;;;;18.02;10.13;;;;;;;;;;4945225;29;20546;-64
2024/02/15 05:33:43;;;;;;;21.75;10.52;;;;;;;;;;4931271;29;20048;-65
2024/02/15 05:36:13;;;;;;;28.23;9.57;;;;;;;;;;4932451;28;20574;-64
2024/02/15 05:38:39;;;;;;;14.88;9.30;;;;;;;;;;4933686;28;20036;-64
2024/02/15 05:41:07;;;;;;;22.00;9.90;;;;;;;;;;4934149;28;20705;-65
2024/02/15 05:43:34;;;;;;;37.72;10.60;;;;;;;;;;4930584;28;20081;-65
2024/02/15 05:46:01;;;;;;;46.95;10.50;;;;;;;;;;4934328;29;20031;-65
2024/02/15 05:48:30;;;;;;;16.65;9.05;;;;;;;;;;4934242;29;20032;-65
2024/02/15 05:50:58;;;;;;;18.88;9.80;;;;;;;;;;4934183;28;20027;-66
2024/02/15 05:53:24;;;;;;;19.80;9.23;;;;;;;;;;4935110;29;20482;-67
2024/02/15 05:55:50;;;;;;;21.95;9.40;;;;;;;;;;4934149;28;20031;-65
2024/02/15 05:58:17;;;;;;;20.98;8.60;;;;;;;;;;4934402;28;20035;-66
2024/02/15 06:00:44;;;;;;;18.27;8.50;;;;;;;;;;4932603;29;20095;-67
2024/02/15 06:03:13;;;;;;;19.55;8.82;;;;;;;;;;4935550;28;20032;-68
2024/02/15 06:05:39;;;;;;;24.50;9.93;;;;;;;;;;4933902;28;20040;-69
2024/02/15 06:08:06;;;;;;;18.83;7.93;;;;;;;;;;4934416;29;20106;-68
2024/02/15 06:10:32;;;;;;;25.08;9.05;;;;;;;;;;4933896;28;20077;-68
2024/02/15 06:12:59;;;;;;;19.88;8.23;;;;;;;;;;4934491;28;20058;-69
2024/02/15 06:15:25;;;;;;;13.43;7.78;;;;;;;;;;4934166;28;20031;-67
2024/02/15 06:17:51;;;;;;;18.40;8.13;;;;;;;;;;4934580;29;20035;-67
2024/02/15 06:20:21;;;;;;;18.70;8.25;;;;;;;;;;4933657;28;20031;-67
2024/02/15 06:22:47;;;;;;;23.08;7.63;;;;;;;;;;4940467;28;20032;-67
2024/02/15 06:25:15;;;;;;;22.95;7.72;;;;;;;;;;4933081;28;20472;-67
2024/02/15 06:27:42;;;;;;;18.50;7.70;;;;;;;;;;4932603;28;20016;-68
2024/02/15 06:41:10;;;;;;;21.42;9.43;;;;;;;;;;4932506;28;20051;-66
2024/02/15 06:43:36;;;;;;;19.92;7.63;;;;;;;;;;4933765;28;20530;-66
2024/02/15 06:46:03;;;;;;;19.33;6.93;;;;;;;;;;4933723;28;20038;-68
2024/02/15 06:48:29;;;;;;;18.92;7.85;;;;;;;;;;4933674;28;20043;-67
2024/02/15 06:50:55;;;;;;;13.63;7.07;;;;;;;;;;4932278;28;20035;-66
2024/02/15 06:53:21;;;;;;;20.17;6.53;;;;;;;;;;4934635;28;20028;-68
2024/02/15 06:55:48;;;;;;;16.83;7.65;;;;;;;;;;4933145;28;20515;-67
2024/02/15 06:58:15;;;;;;;33.08;10.63;;;;;;;;;;4934178;29;20034;-67
2024/02/15 07:00:42;;;;;;;31.13;10.27;;;;;;;;;;4934011;28;20058;-67
2024/02/15 07:03:08;;;;;;;34.75;9.57;;;;;;;;;;4935516;28;20028;-66
2024/02/15 07:05:34;;;;;;;28.92;8.63;;;;;;;;;;4933590;28;20531;-67
2024/02/15 07:08:01;;;;;;;22.52;8.75;;;;;;;;;;4932261;28;20089;-67
2024/02/15 07:10:27;;;;;;;28.98;9.20;;;;;;;;;;4932749;28;20035;-67
2024/02/15 07:12:52;;;;;;;24.85;8.68;;;;;;;;;;4938195;29;20098;-67
2024/02/15 07:15:19;;;;;;;27.55;8.40;;;;;;;;;;4939252;29;20486;-67
2024/02/15 07:17:46;;;;;;;24.55;8.68;;;;;;;;;;4937333;28;20020;-68
2024/02/15 07:20:18;;;;;;;8.63;4.93;;;;;;;;;;4931057;28;20050;-64
2024/02/15 07:22:45;;;;;;;6.97;4.85;;;;;;;;;;4929802;28;20056;-65
2024/02/15 07:25:11;;;;;;;7.07;5.22;;;;;;;;;;4930530;28;20462;-65
2024/02/15 07:27:37;;;;;;;6.32;5.20;;;;;;;;;;4931763;29;20028;-65
2024/02/15 07:30:04;;;;;;;6.85;4.97;;;;;;;;;;4933182;29;20027;-65
2024/02/15 07:32:31;;;;;;;6.82;4.90;;;;;;;;;;4931192;29;20011;-65
2024/02/15 07:34:57;;;;;;;6.00;4.78;;;;;;;;;;4931804;29;20024;-65
2024/02/15 07:37:26;;;;;;;8.13;4.68;;;;;;;;;;4931502;28;20044;-64
2024/02/15 07:39:52;;;;;;;7.15;4.68;;;;;;;;;;4931607;29;20020;-65
2024/02/15 07:42:18;;;;;;;5.75;4.40;;;;;;;;;;4931400;29;20495;-65
2024/02/15 07:44:44;;;;;;;6.18;4.32;;;;;;;;;;4931564;28;20027;-65
2024/02/15 07:47:10;;;;;;;4.90;3.45;;;;;;;;;;4931043;28;20107;-65
2024/02/15 07:49:36;;;;;;;5.70;3.70;;;;;;;;;;4931379;29;20028;-65
2024/02/15 07:52:04;;;;;;;4.85;3.55;;;;;;;;;;4931321;28;20019;-65
2024/02/15 07:54:33;;;;;;;9.30;3.10;;;;;;;;;;4931495;29;20036;-65
2024/02/15 07:56:59;;;;;;;3.40;2.72;;;;;;;;;;4930659;29;20035;-65
2024/02/15 07:59:25;;;;;;;4.78;2.80;;;;;;;;;;4929812;28;20439;-65
2024/02/15 08:01:51;;;;;;;5.10;2.85;;;;;;;;;;4913884;28;20032;-66
2024/02/15 08:04:17;;;;;;;4.50;3.03;;;;;;;;;;4913957;28;20032;-65
2024/02/15 08:06:44;;;;;;;2.67;2.25;;;;;;;;;;4932745;29;20028;-64
2024/02/15 08:09:13;;;;;;;3.47;2.55;;;;;;;;;;4932086;28;20048;-64
2024/02/15 08:11:42;;;;;;;2.42;2.22;;;;;;;;;;4932421;29;20055;-65
2024/02/15 08:14:10;;;;;;;4.18;2.80;;;;;;;;;;4930152;28;20047;-66
2024/02/15 08:16:37;;;;;;;4.68;2.42;;;;;;;;;;4931154;28;20031;-65
2024/02/15 08:19:05;;;;;;;4.32;2.40;;;;;;;;;;4931274;29;20038;-65
2024/02/15 08:21:38;;;;;;;2.42;2.00;;;;;;;;;;4929760;29;20483;-66
2024/02/15 08:24:05;;;;;;;3.05;2.60;;;;;;;;;;4931092;28;20071;-65
2024/02/15 08:26:43;;;;;;;2.20;1.90;;;;;;;;;;4931277;29;20403;-65
2024/02/15 08:29:10;;;;;;;3.15;2.38;;;;;;;;;;4930994;28;20037;-66
2024/02/15 08:31:36;;;;;;;3.38;2.20;;;;;;;;;;4930858;28;20486;-65
2024/02/15 08:34:05;;;;;;;3.17;2.15;;;;;;;;;;4931100;28;20443;-65
2024/02/15 08:36:31;;;;;;;3.13;2.25;;;;;;;;;;4931070;28;20127;-66
2024/02/15 08:38:57;;;;;;;3.67;2.05;;;;;;;;;;4930738;29;20127;-65
2024/02/15 08:41:27;;;;;;;4.65;2.22;;;;;;;;;;4930673;28;20022;-66
2024/02/15 08:43:53;;;;;;;2.75;1.77;;;;;;;;;;4931019;28;20488;-65
2024/02/15 08:46:21;;;;;;;3.17;2.22;;;;;;;;;;4930759;29;20507;-65
2024/02/15 08:48:47;;;;;;;2.78;1.90;;;;;;;;;;4931139;28;20035;-65
2024/02/15 08:51:13;;;;;;;3.67;2.10;;;;;;;;;;4930897;29;20020;-64
2024/02/15 08:53:39;;;;;;;2.42;1.80;;;;;;;;;;4930959;29;20024;-65
2024/02/15 08:56:06;;;;;;;2.28;1.90;;;;;;;;;;4930930;28;20486;-63
2024/02/15 08:58:32;;;;;;;4.05;2.00;;;;;;;;;;4931176;28;20039;-65
2024/02/15 09:00:58;;;;;;;3.88;2.15;;;;;;;;;;4932797;28;20081;-65
2024/02/15 09:03:24;;;;;;;4.85;2.05;;;;;;;;;;4934126;28;20056;-65
2024/02/15 09:05:51;;;;;;;2.70;2.08;;;;;;;;;;4933892;28;20031;-65
2024/02/15 09:08:20;;;;;;;1.90;1.67;;;;;;;;;;4933807;29;20479;-65
2024/02/15 09:10:55;;;;;;;2.85;1.90;;;;;;;;;;4933617;28;20438;-66
2024/02/15 09:13:22;;;;;;;3.70;1.70;;;;;;;;;;4932557;28;20016;-64
2024/02/15 09:15:48;;;;;;;2.45;1.88;;;;;;;;;;4933919;29;20023;-66
2024/02/15 09:18:14;;;;;;;2.40;1.85;;;;;;;;;;4933634;28;20024;-66
2024/02/15 09:20:44;;;;;;;4.53;2.05;;;;;;;;;;4933566;29;20458;-65
2024/02/15 09:23:12;;;;;;;3.03;1.50;;;;;;;;;;4933644;28;20054;-65
2024/02/15 09:25:44;;;;;;;2.47;2.28;;;;;;;;;;4932257;28;20032;-64
2024/02/15 09:28:11;;;;;;;2.33;2.00;;;;;;;;;;4933539;29;20395;-65
2024/02/15 09:30:37;;;;;;;2.08;1.65;;;;;;;;;;4933283;28;20020;-65
2024/02/15 09:33:04;;;;;;;2.40;1.98;;;;;;;;;;4933422;29;20024;-65
2024/02/15 09:35:31;;;;;;;2.80;1.90;;;;;;;;;;4933428;28;20502;-65
2024/02/15 09:37:57;;;;;;;2.13;1.88;;;;;;;;;;4933078;28;20406;-66
2024/02/15 09:40:29;;;;;;;3.13;1.73;;;;;;;;;;4933007;28;20027;-64
2024/02/15 09:42:55;;;;;;;3.42;2.15;;;;;;;;;;4933283;28;20549;-66
2024/02/15 09:45:24;;;;;;;3.25;1.50;;;;;;;;;;4931917;29;20039;-65
2024/02/15 09:47:52;;;;;;;2.25;1.40;;;;;;;;;;4933222;29;20030;-65
2024/02/15 09:50:19;;;;;;;3.35;1.70;;;;;;;;;;4933066;28;20106;-64
2024/02/15 09:52:45;;;;;;;2.55;1.67;;;;;;;;;;4932972;29;20024;-64
2024/02/15 09:55:13;;;;;;;2.42;1.42;;;;;;;;;;4933431;29;20038;-65
2024/02/15 09:57:39;;;;;;;2.63;1.85;;;;;;;;;;4933033;28;20042;-65
2024/02/15 10:00:13;;;;;;;2.03;1.67;;;;;;;;;;4933075;28;20046;-65
2024/02/15 10:02:40;;;;;;;1.63;1.52;;;;;;;;;;4932969;29;20491;-65
2024/02/15 10:05:11;;;;;;;1.85;1.65;;;;;;;;;;4933072;29;20038;-65
2024/02/15 10:07:37;;;;;;;1.77;1.40;;;;;;;;;;4933408;28;20034;-65
2024/02/15 10:10:19;;;;;;;1.55;1.35;;;;;;;;;;4933528;28;20052;-65
2024/02/15 10:12:51;;;;;;;1.63;1.52;;;;;;;;;;4932911;28;20111;-64
2024/02/15 10:15:30;;;;;;;2.50;1.83;;;;;;;;;;4932862;29;20032;-65
2024/02/15 10:17:58;;;;;;;1.50;1.40;;;;;;;;;;4931773;28;20027;-66
2024/02/15 10:20:25;;;;;;;2.33;1.60;;;;;;;;;;4932637;28;20086;-66
2024/02/15 10:22:52;;;;;;;3.88;1.95;;;;;;;;;;4932917;28;20034;-65
2024/02/15 10:25:19;;;;;;;1.83;1.73;;;;;;;;;;4932945;28;20028;-66
2024/02/15 10:27:45;;;;;;;1.85;1.58;;;;;;;;;;4931861;28;20118;-66
2024/02/15 10:30:17;;;;;;;4.15;1.48;;;;;;;;;;4932915;28;20024;-65
2024/02/15 10:32:44;;;;;;;2.70;1.60;;;;;;;;;;4931356;28;20645;-65
2024/02/15 10:35:15;;;;;;;2.85;1.48;;;;;;;;;;4932680;29;20082;-65
2024/02/15 10:37:42;;;;;;;2.95;1.70;;;;;;;;;;4932691;29;20400;-65
2024/02/15 10:40:08;;;;;;;1.77;1.55;;;;;;;;;;4933272;29;20028;-65
2024/02/15 10:42:35;;;;;;;1.52;1.35;;;;;;;;;;4931346;23;20411;-72
2024/02/15 10:45:04;;;;;;;3.03;2.08;;;;;;;;;;4913227;28;20454;-71
2024/02/15 10:47:31;;;;;;;3.10;1.50;;;;;;;;;;4913358;28;20035;-72
2024/02/15 10:49:58;;;;;;;3.08;1.90;;;;;;;;;;4913510;28;20158;-71
2024/02/15 10:52:28;;;;;;;2.65;1.65;;;;;;;;;;4913436;28;20054;-70
2024/02/15 10:55:00;;;;;;;1.77;1.67;;;;;;;;;;4913430;28;20032;-69
2024/02/15 10:57:27;;;;;;;2.13;1.85;;;;;;;;;;4913374;29;20419;-72
2024/02/15 10:59:57;;;;;;;1.80;1.45;;;;;;;;;;4913006;28;20036;-72
2024/02/15 11:02:23;;;;;;;1.50;1.40;;;;;;;;;;4913063;29;20059;-71
2024/02/15 11:04:56;;;;;;;2.35;1.70;;;;;;;;;;4913154;29;20118;-69
2024/02/15 11:07:23;;;;;;;1.75;1.50;;;;;;;;;;4911988;29;20024;-69
2024/02/15 11:09:49;;;;;;;1.42;1.33;;;;;;;;;;4913133;28;20032;-70
2024/02/15 11:12:15;;;;;;;2.47;1.52;;;;;;;;;;4912852;29;20495;-72
2024/02/15 11:14:45;;;;;;;1.55;1.45;;;;;;;;;;4913146;28;20050;-70
2024/02/15 11:17:13;;;;;;;1.67;1.58;;;;;;;;;;4912995;28;20384;-70
2024/02/15 11:19:39;;;;;;;1.70;1.45;;;;;;;;;;4912899;29;20488;-71
2024/02/15 11:22:17;;;;;;;1.65;1.55;;;;;;;;;;4912377;29;20070;-70
2024/02/15 11:24:49;;;;;;;1.55;1.45;;;;;;;;;;4912646;28;20071;-70
2024/02/15 11:27:28;;;;;;;1.75;1.27;;;;;;;;;;4912902;28;20036;-72
2024/02/15 11:30:09;;;;;;;1.65;1.55;;;;;;;;;;4911491;28;20033;-74
2024/02/15 11:32:35;;;;;;;1.33;1.23;;;;;;;;;;4912640;29;20025;-70
2024/02/15 11:35:16;;;;;;;1.67;1.33;;;;;;;;;;4912770;28;20024;-71
2024/02/15 11:37:42;;;;;;;;;;;;;;;;;;4913270;28;20032;-70
2024/02/15 11:40:10;;;;;;;1.83;1.48;;;;;;;;;;4912767;28;19934;-70
2024/02/15 11:42:37;;;;;;;1.80;1.60;;;;;;;;;;4912297;29;20036;-70
2024/02/15 11:45:11;;;;;;;2.13;1.50;;;;;;;;;;4912375;29;20028;-71
2024/02/15 11:47:42;;;;;;;1.45;1.35;;;;;;;;;;4912637;28;20028;-70
2024/02/15 11:50:14;;;;;;;2.35;1.40;;;;;;;;;;4912629;28;20029;-71
2024/02/15 11:52:45;;;;;;;1.52;1.38;;;;;;;;;;4911212;28;20032;-71
2024/02/15 11:55:13;;;;;;;1.52;1.20;;;;;;;;;;4912618;29;20431;-70
2024/02/15 11:57:48;;;;;;;1.45;1.20;;;;;;;;;;4912619;28;20040;-70
2024/02/15 12:19:56;;;;;;;2.13;1.27;;;;;;;;;;4912148;28;20411;-70
2024/02/15 12:22:27;;;;;;;1.20;1.08;;;;;;;;;;4911999;28;20024;-71
2024/02/15 12:24:54;;;;;;;1.80;1.40;;;;;;;;;;4912082;28;20032;-70
2024/02/15 12:27:20;;;;;;;1.55;1.30;;;;;;;;;;4912125;28;20044;-71
2024/02/15 12:29:47;;;;;;;1.55;1.10;;;;;;;;;;4912064;28;20032;-70
2024/02/15 12:32:20;;;;;;;1.30;1.17;;;;;;;;;;4911886;28;20085;-70
2024/02/15 12:34:47;;;;;;;2.08;1.30;;;;;;;;;;4913902;28;20115;-71
2024/02/15 12:37:13;;;;;;;1.35;1.10;;;;;;;;;;4915438;28;20040;-70
2024/02/15 12:39:41;;;;;;;1.52;1.42;;;;;;;;;;4913982;29;20495;-70
2024/02/15 12:42:09;;;;;;;1.92;1.73;;;;;;;;;;4914859;29;20051;-70
2024/02/15 12:44:35;;;;;;;1.60;1.50;;;;;;;;;;4913949;29;20032;-70
2024/02/15 12:47:03;;;;;;;1.48;1.38;;;;;;;;;;4914122;29;20024;-70
2024/02/15 12:49:30;;;;;;;1.30;1.20;;;;;;;;;;4915127;28;20555;-71
2024/02/15 12:52:16;;;;;;;1.48;1.35;;;;;;;;;;4915025;28;20036;-70
2024/02/15 12:54:42;;;;;;;1.38;1.13;;;;;;;;;;4915071;28;20040;-70
2024/02/15 12:57:13;;;;;;;1.65;1.38;;;;;;;;;;4915125;28;20107;-70
2024/02/15 12:59:39;;;;;;;0.80;0.80;;;;;;;;;;4915255;29;20024;-70
2024/02/15 13:02:05;;;;;;;1.35;1.25;;;;;;;;;;4914713;29;20037;-70
2024/02/15 13:04:31;;;;;;;2.20;1.60;;;;;;;;;;4914919;29;20578;-71
2024/02/15 13:06:57;;;;;;;1.42;1.33;;;;;;;;;;4914712;28;20403;-70
2024/02/15 13:09:24;;;;;;;1.48;1.38;;;;;;;;;;4913426;29;20028;-71
2024/02/15 13:11:50;;;;;;;1.50;1.30;;;;;;;;;;4914640;28;20048;-70
2024/02/15 13:14:16;;;;;;;1.52;1.42;;;;;;;;;;4914858;29;20020;-70
2024/02/15 13:16:44;;;;;;;1.50;1.40;;;;;;;;;;4915097;28;20393;-71
2024/02/15 13:19:10;;;;;;;1.52;1.38;;;;;;;;;;4915004;28;20028;-70
2024/02/15 13:21:36;;;;;;;1.55;1.10;;;;;;;;;;4914783;28;20587;-70
2024/02/15 13:24:05;;;;;;;1.70;1.27;;;;;;;;;;4913899;29;20024;-71
2024/02/15 13:26:33;;;;;;;1.40;1.23;;;;;;;;;;4915122;28;20372;-71
2024/02/15 13:28:59;;;;;;;2.70;1.50;;;;;;;;;;4916415;29;20044;-72
2024/02/15 13:31:27;;;;;;;3.55;2.17;;;;;;;;;;4916370;28;20464;-72
2024/02/15 13:33:53;;;;;;;4.93;1.67;;;;;;;;;;4918325;28;20094;-71
2024/02/15 13:36:19;;;;;;;2.58;1.60;;;;;;;;;;4916356;28;20039;-70
2024/02/15 13:38:46;;;;;;;3.17;1.45;;;;;;;;;;4914984;28;20052;-70
2024/02/15 13:41:12;;;;;;;2.42;1.33;;;;;;;;;;4913180;29;20123;-70
2024/02/15 13:43:41;;;;;;;2.13;1.50;;;;;;;;;;4915264;28;20451;-69
2024/02/15 13:46:07;;;;;;;2.88;1.23;;;;;;;;;;4913603;29;20502;-70
2024/02/15 13:48:33;;;;;;;2.63;1.20;;;;;;;;;;4914335;28;20036;-70
2024/02/15 13:50:59;;;;;;;1.83;1.00;;;;;;;;;;4914063;29;20024;-70
2024/02/15 13:53:25;;;;;;;9.55;1.45;;;;;;;;;;4914127;28;20032;-70
2024/02/15 13:55:54;;;;;;;4.60;1.63;;;;;;;;;;4914319;28;20028;-70
2024/02/15 13:58:20;;;;;;;2.17;1.10;;;;;;;;;;4914080;29;20055;-68
2024/02/15 14:00:47;;;;;;;1.85;1.20;;;;;;;;;;4912450;28;20483;-70
2024/02/15 14:03:15;;;;;;;3.15;1.73;;;;;;;;;;4914001;28;20032;-71
2024/02/15 14:05:42;;;;;;;3.35;1.45;;;;;;;;;;4913958;29;20099;-70
2024/02/15 14:08:09;;;;;;;1.42;1.15;;;;;;;;;;4914200;29;20032;-70
2024/02/15 14:10:36;;;;;;;2.00;1.48;;;;;;;;;;4913828;28;20376;-71
2024/02/15 14:13:02;;;;;;;2.95;1.10;;;;;;;;;;4913721;29;20103;-70
2024/02/15 14:15:29;;;;;;;3.17;1.50;;;;;;;;;;4913833;28;20483;-69
2024/02/15 14:17:58;;;;;;;4.50;1.50;;;;;;;;;;4912318;28;20028;-69
2024/02/15 14:20:24;;;;;;;3.33;1.80;;;;;;;;;;4912063;28;20028;-67
2024/02/15 14:22:57;;;;;;;8.43;1.60;;;;;;;;;;4913753;28;20032;-69
2024/02/15 14:25:25;;;;;;;2.22;1.60;;;;;;;;;;4913787;28;20099;-70
2024/02/15 14:27:51;;;;;;;4.68;1.33;;;;;;;;;;4913880;28;20035;-69
2024/02/15 14:33:10;;;;;;;4.22;1.70;;;;;;;;;;4913867;29;20090;-68
2024/02/15 14:35:38;;;;;;;2.92;1.85;;;;;;;;;;4913483;28;20395;-69
2024/02/15 14:38:10;;;;;;;4.72;1.80;;;;;;;;;;4913674;28;20132;-66
2024/02/15 14:40:38;;;;;;;3.58;1.48;;;;;;;;;;4913369;28;20095;-67
2024/02/15 14:43:04;;;;;;;8.18;1.48;;;;;;;;;;4913431;28;20085;-68
2024/02/15 14:45:31;;;;;;;6.82;1.83;;;;;;;;;;4913416;28;20403;-70
2024/02/15 14:47:58;;;;;;;4.13;1.73;;;;;;;;;;4913200;28;20103;-67
2024/02/15 14:50:25;;;;;;;7.38;1.80;;;;;;;;;;4911771;28;20483;-66
2024/02/15 14:52:52;;;;;;;6.50;1.77;;;;;;;;;;4913264;29;20027;-68
2024/02/15 14:55:19;;;;;;;11.20;1.95;;;;;;;;;;4925893;29;20031;-69
2024/02/15 14:57:45;;;;;;;3.05;1.17;;;;;;;;;;4926009;28;20021;-68
2024/02/15 15:00:14;;;;;;;8.30;1.55;;;;;;;;;;4912953;29;20404;-69
2024/02/15 15:02:43;;;;;;;4.80;1.75;;;;;;;;;;4912336;28;20095;-68
2024/02/15 15:13:23;;;;;;;4.15;1.70;;;;;;;;;;4912796;28;20035;-69